Time,TemperatureF,DewpointF,PressureIn,WindDirection,WindDirectionDegrees,WindSpeedMPH,WindSpeedGustMPH,Humidity,HourlyPrecipIn,Conditions,Clouds,dailyrainin,SoftwareType,DateUTC
2013-03-01 00:01:00,45.0,6.2,24.66,WSW,247,2.2,3.6,20,0.00,,,0.00,WUHU216WMR200,2013-03-01 08:01:00,
2013-03-01 00:06:00,44.8,6.1,24.63,South,180,1.1,3.6,20,0.00,,,0.00,WUHU216WMR200,2013-03-01 08:06:00,
2013-03-01 00:11:00,44.8,6.1,24.63,West,270,0.0,2.2,20,0.00,,,0.00,WUHU216WMR200,2013-03-01 08:11:00,
2013-03-01 00:16:00,44.6,5.9,24.63,SE,135,1.1,2.0,20,0.00,,,0.00,WUHU216WMR200,2013-03-01 08:16:00,
2013-03-01 00:21:00,44.6,5.9,24.66,SSW,202,0.0,1.1,20,0.00,,,0.00,WUHU216WMR200,2013-03-01 08:21:00,
2013-03-01 00:26:00,44.4,5.7,24.66,SW,225,0.0,1.1,20,0.00,,,0.00,WUHU216WMR200,2013-03-01 08:26:00,
2013-03-01 00:31:00,44.6,5.9,24.66,SE,135,0.0,1.1,20,0.00,,,0.00,WUHU216WMR200,2013-03-01 08:31:00,
2013-03-01 00:36:00,44.6,5.9,24.66,West,270,0.0,1.3,20,0.00,,,0.00,WUHU216WMR200,2013-03-01 08:36:00,
2013-03-01 00:41:00,44.4,5.7,24.66,WSW,247,0.0,1.3,20,0.00,,,0.00,WUHU216WMR200,2013-03-01 08:41:00,
2013-03-01 00:46:00,44.4,5.7,24.66,WSW,247,0.0,3.1,20,0.00,,,0.00,WUHU216WMR200,2013-03-01 08:46:00,
2013-03-01 00:51:00,44.1,5.5,24.66,West,270,0.0,3.1,20,0.00,,,0.00,WUHU216WMR200,2013-03-01 08:51:00,
2013-03-01 00:56:00,44.1,5.5,24.66,NW,315,0.0,0.9,20,0.00,,,0.00,WUHU216WMR200,2013-03-01 08:56:00,
2013-03-01 01:01:00,44.1,5.5,24.66,West,270,0.0,3.1,20,0.00,,,0.00,WUHU216WMR200,2013-03-01 09:01:00,
2013-03-01 01:06:00,44.2,5.6,24.66,West,270,1.3,3.1,20,0.00,,,0.00,WUHU216WMR200,2013-03-01 09:06:00,
2013-03-01 01:11:00,44.1,5.5,24.66,West,270,0.0,2.7,20,0.00,,,0.00,WUHU216WMR200,2013-03-01 09:11:00,
2013-03-01 01:16:00,43.5,5.0,24.66,SSW,202,0.0,2.0,20,0.00,,,0.00,WUHU216WMR200,2013-03-01 09:16:00,
2013-03-01 01:21:00,43.2,4.7,24.66,ESE,112,0.0,0.0,20,0.00,,,0.00,WUHU216WMR200,2013-03-01 09:21:00,
2013-03-01 01:26:00,42.8,4.4,24.66,SSE,157,0.0,0.0,20,0.00,,,0.00,WUHU216WMR200,2013-03-01 09:26:00,
2013-03-01 01:31:00,42.8,4.4,24.66,SSE,157,0.0,0.0,20,0.00,,,0.00,WUHU216WMR200,2013-03-01 09:31:00,
2013-03-01 01:36:00,42.6,5.3,24.66,WSW,247,0.9,0.9,21,0.00,,,0.00,WUHU216WMR200,2013-03-01 09:36:00,
2013-03-01 01:41:00,42.4,5.1,24.66,SW,225,0.0,0.9,21,0.00,,,0.00,WUHU216WMR200,2013-03-01 09:41:00,
2013-03-01 01:46:00,42.8,4.4,24.66,ESE,112,0.0,1.3,20,0.00,,,0.00,WUHU216WMR200,2013-03-01 09:46:00,
2013-03-01 01:51:00,42.6,5.3,24.66,SSW,202,0.0,1.3,21,0.00,,,0.00,WUHU216WMR200,2013-03-01 09:51:00,
2013-03-01 01:56:00,42.4,5.1,24.66,SSW,202,0.0,0.0,21,0.00,,,0.00,WUHU216WMR200,2013-03-01 09:56:00,
2013-03-01 02:01:00,42.4,5.1,24.66,SE,135,0.0,0.0,21,0.00,,,0.00,WUHU216WMR200,2013-03-01 10:01:00,
2013-03-01 02:06:00,42.1,4.9,24.66,ESE,112,0.0,0.0,21,0.00,,,0.00,WUHU216WMR200,2013-03-01 10:06:00,
2013-03-01 02:11:00,42.3,5.0,24.66,ESE,112,0.0,0.0,21,0.00,,,0.00,WUHU216WMR200,2013-03-01 10:11:00,
2013-03-01 02:16:00,42.3,5.0,24.66,SW,225,0.0,0.9,21,0.00,,,0.00,WUHU216WMR200,2013-03-01 10:16:00,
2013-03-01 02:21:00,42.3,5.0,24.66,West,270,0.9,0.9,21,0.00,,,0.00,WUHU216WMR200,2013-03-01 10:21:00,
2013-03-01 02:26:00,42.4,5.1,24.66,SW,225,0.0,2.0,21,0.00,,,0.00,WUHU216WMR200,2013-03-01 10:26:00,
2013-03-01 02:31:00,42.4,5.1,24.66,SSW,202,0.0,2.5,21,0.00,,,0.00,WUHU216WMR200,2013-03-01 10:31:00,
2013-03-01 02:36:00,42.6,5.3,24.66,WSW,247,0.0,2.9,21,0.00,,,0.00,WUHU216WMR200,2013-03-01 10:36:00,
2013-03-01 02:41:00,42.4,5.1,24.66,ESE,112,0.0,2.9,21,0.00,,,0.00,WUHU216WMR200,2013-03-01 10:41:00,
2013-03-01 02:46:00,42.1,4.9,24.66,SSW,202,0.0,1.6,21,0.00,,,0.00,WUHU216WMR200,2013-03-01 10:46:00,
2013-03-01 02:51:00,42.1,4.9,24.66,SW,225,0.0,0.9,21,0.00,,,0.00,WUHU216WMR200,2013-03-01 10:51:00,
2013-03-01 02:56:00,42.3,5.0,24.66,West,270,0.0,1.1,21,0.00,,,0.00,WUHU216WMR200,2013-03-01 10:56:00,
2013-03-01 03:01:00,42.1,4.9,24.66,ESE,112,0.0,1.6,21,0.00,,,0.00,WUHU216WMR200,2013-03-01 11:01:00,
2013-03-01 03:06:00,41.9,4.7,24.66,WSW,247,0.0,1.6,21,0.00,,,0.00,WUHU216WMR200,2013-03-01 11:06:00,
2013-03-01 03:11:00,41.7,4.5,24.66,SSW,202,0.0,1.3,21,0.00,,,0.00,WUHU216WMR200,2013-03-01 11:11:00,
2013-03-01 03:16:00,41.7,4.5,24.66,South,180,0.0,1.6,21,0.00,,,0.00,WUHU216WMR200,2013-03-01 11:16:00,
2013-03-01 03:21:00,41.9,4.7,24.66,West,270,1.1,2.5,21,0.00,,,0.00,WUHU216WMR200,2013-03-01 11:21:00,
2013-03-01 03:26:00,41.9,4.7,24.66,West,270,0.0,2.7,21,0.00,,,0.00,WUHU216WMR200,2013-03-01 11:26:00,
2013-03-01 03:31:00,41.4,4.3,24.66,ESE,112,0.0,2.7,21,0.00,,,0.00,WUHU216WMR200,2013-03-01 11:31:00,
2013-03-01 03:36:00,41.0,3.9,24.66,ESE,112,0.0,1.1,21,0.00,,,0.00,WUHU216WMR200,2013-03-01 11:36:00,
2013-03-01 03:41:00,41.2,4.1,24.66,East,90,0.0,0.0,21,0.00,,,0.00,WUHU216WMR200,2013-03-01 11:41:00,
2013-03-01 03:46:00,41.5,4.4,24.66,West,270,0.0,1.3,21,0.00,,,0.00,WUHU216WMR200,2013-03-01 11:46:00,
2013-03-01 03:51:00,41.9,4.7,24.66,South,180,0.0,2.5,21,0.00,,,0.00,WUHU216WMR200,2013-03-01 11:51:00,
2013-03-01 03:56:00,41.7,4.5,24.66,East,90,0.0,2.5,21,0.00,,,0.00,WUHU216WMR200,2013-03-01 11:56:00,
2013-03-01 04:01:00,42.1,4.9,24.66,West,270,0.0,2.2,21,0.00,,,0.00,WUHU216WMR200,2013-03-01 12:01:00,
2013-03-01 04:06:00,42.1,4.9,24.66,WSW,247,1.3,2.9,21,0.00,,,0.00,WUHU216WMR200,2013-03-01 12:06:00,
2013-03-01 04:11:00,41.9,4.7,24.66,East,90,0.0,2.9,21,0.00,,,0.00,WUHU216WMR200,2013-03-01 12:11:00,
2013-03-01 04:16:00,41.7,4.5,24.66,West,270,0.0,1.3,21,0.00,,,0.00,WUHU216WMR200,2013-03-01 12:16:00,
2013-03-01 04:21:00,42.1,4.9,24.66,West,270,0.0,2.7,21,0.00,,,0.00,WUHU216WMR200,2013-03-01 12:21:00,
2013-03-01 04:26:00,42.3,5.0,24.66,WSW,247,0.0,2.9,21,0.00,,,0.00,WUHU216WMR200,2013-03-01 12:26:00,
2013-03-01 04:31:00,42.3,5.0,24.66,West,270,0.0,2.9,21,0.00,,,0.00,WUHU216WMR200,2013-03-01 12:31:00,
2013-03-01 04:36:00,42.1,4.9,24.66,West,270,1.3,2.9,21,0.00,,,0.00,WUHU216WMR200,2013-03-01 12:36:00,
2013-03-01 04:41:00,42.1,4.9,24.66,WSW,247,2.0,2.9,21,0.00,,,0.00,WUHU216WMR200,2013-03-01 12:41:00,
2013-03-01 04:46:00,41.9,4.7,24.66,East,90,0.0,2.9,21,0.00,,,0.00,WUHU216WMR200,2013-03-01 12:46:00,
2013-03-01 04:51:00,41.5,4.4,24.66,SE,135,0.0,2.2,21,0.00,,,0.00,WUHU216WMR200,2013-03-01 12:51:00,
2013-03-01 04:56:00,41.0,3.9,24.66,ESE,112,0.0,0.0,21,0.00,,,0.00,WUHU216WMR200,2013-03-01 12:56:00,
2013-03-01 05:01:00,40.8,0.5,24.66,ESE,112,0.0,0.9,18,0.00,,,0.00,WUHU216WMR200,2013-03-01 13:01:00,
2013-03-01 05:06:00,40.5,0.3,24.66,South,180,0.0,0.9,18,0.00,,,0.00,WUHU216WMR200,2013-03-01 13:06:00,
2013-03-01 05:11:00,40.5,0.3,24.66,ESE,112,0.0,0.0,18,0.00,,,0.00,WUHU216WMR200,2013-03-01 13:11:00,
2013-03-01 05:16:00,40.5,0.3,24.66,SE,135,0.0,0.0,18,0.00,,,0.00,WUHU216WMR200,2013-03-01 13:16:00,
2013-03-01 05:21:00,40.3,0.1,24.66,SE,135,0.0,0.0,18,0.00,,,0.00,WUHU216WMR200,2013-03-01 13:21:00,
2013-03-01 05:26:00,40.3,0.1,24.66,SSE,157,0.0,0.0,18,0.00,,,0.00,WUHU216WMR200,2013-03-01 13:26:00,
2013-03-01 05:31:00,40.3,0.1,24.66,SE,135,0.0,0.0,18,0.00,,,0.00,WUHU216WMR200,2013-03-01 13:31:00,
2013-03-01 05:36:00,40.3,0.1,24.63,SSW,202,0.0,0.0,18,0.00,,,0.00,WUHU216WMR200,2013-03-01 13:36:00,
2013-03-01 05:41:00,40.3,0.1,24.63,SSE,157,0.0,0.0,18,0.00,,,0.00,WUHU216WMR200,2013-03-01 13:41:00,
2013-03-01 05:46:00,39.9,-0.2,24.63,SSE,157,0.0,0.9,18,0.00,,,0.00,WUHU216WMR200,2013-03-01 13:46:00,
2013-03-01 05:51:00,40.3,0.1,24.66,West,270,0.0,0.9,18,0.00,,,0.00,WUHU216WMR200,2013-03-01 13:51:00,
2013-03-01 05:56:00,41.0,3.9,24.66,West,270,0.0,2.7,21,0.00,,,0.00,WUHU216WMR200,2013-03-01 13:56:00,
2013-03-01 06:01:00,41.0,3.9,24.66,WSW,247,0.0,2.7,21,0.00,,,0.00,WUHU216WMR200,2013-03-01 14:01:00,
2013-03-01 06:06:00,41.2,4.1,24.63,ESE,112,0.0,2.7,21,0.00,,,0.00,WUHU216WMR200,2013-03-01 14:06:00,
2013-03-01 06:11:00,40.6,3.6,24.63,ESE,112,0.0,2.0,21,0.00,,,0.00,WUHU216WMR200,2013-03-01 14:11:00,
2013-03-01 06:16:00,40.6,3.6,24.63,ESE,112,0.0,0.9,21,0.00,,,0.00,WUHU216WMR200,2013-03-01 14:16:00,
2013-03-01 06:21:00,40.5,3.5,24.66,SSE,157,0.0,0.9,21,0.00,,,0.00,WUHU216WMR200,2013-03-01 14:21:00,
2013-03-01 06:26:00,40.3,0.1,24.66,ESE,112,0.0,0.0,18,0.00,,,0.00,WUHU216WMR200,2013-03-01 14:26:00,
2013-03-01 06:31:00,40.3,0.1,24.66,ESE,112,0.0,0.0,18,0.00,,,0.00,WUHU216WMR200,2013-03-01 14:31:00,
2013-03-01 06:36:00,40.6,3.6,24.66,WSW,247,0.0,1.1,21,0.00,,,0.00,WUHU216WMR200,2013-03-01 14:36:00,
2013-03-01 06:41:00,41.0,3.9,24.66,WNW,292,0.0,1.6,21,0.00,,,0.00,WUHU216WMR200,2013-03-01 14:41:00,
2013-03-01 06:46:00,41.7,4.5,24.66,West,270,1.1,3.1,21,0.00,,,0.00,WUHU216WMR200,2013-03-01 14:46:00,
2013-03-01 06:51:00,41.9,4.7,24.66,SSW,202,0.0,3.1,21,0.00,,,0.00,WUHU216WMR200,2013-03-01 14:51:00,
2013-03-01 06:56:00,42.1,4.9,24.66,SW,225,0.9,3.1,21,0.00,,,0.00,WUHU216WMR200,2013-03-01 14:56:00,
2013-03-01 07:01:00,42.3,5.0,24.66,ESE,112,0.0,3.1,21,0.00,,,0.00,WUHU216WMR200,2013-03-01 15:01:00,
2013-03-01 07:06:00,42.4,5.1,24.66,West,270,2.9,2.9,21,0.00,,,0.00,WUHU216WMR200,2013-03-01 15:06:00,
2013-03-01 07:11:00,43.0,4.6,24.66,NE,45,1.6,2.9,20,0.00,,,0.00,WUHU216WMR200,2013-03-01 15:11:00,
2013-03-01 07:16:00,43.3,4.8,24.66,West,270,3.1,3.1,20,0.00,,,0.00,WUHU216WMR200,2013-03-01 15:16:00,
2013-03-01 07:21:00,43.7,5.2,24.66,ENE,67,0.0,3.4,20,0.00,,,0.00,WUHU216WMR200,2013-03-01 15:21:00,
2013-03-01 07:26:00,44.2,5.6,24.66,WSW,247,1.3,3.4,20,0.00,,,0.00,WUHU216WMR200,2013-03-01 15:26:00,
2013-03-01 07:31:00,45.1,6.3,24.66,West,270,0.0,2.9,20,0.00,,,0.00,WUHU216WMR200,2013-03-01 15:31:00,
2013-03-01 07:36:00,45.5,6.7,24.66,South,180,0.0,3.8,20,0.00,,,0.00,WUHU216WMR200,2013-03-01 15:36:00,
2013-03-01 07:41:00,46.4,6.3,24.66,WSW,247,3.1,3.8,19,0.00,,,0.00,WUHU216WMR200,2013-03-01 15:41:00,
2013-03-01 07:46:00,46.9,6.7,24.66,NNE,22,1.3,3.8,19,0.00,,,0.00,WUHU216WMR200,2013-03-01 15:46:00,
2013-03-01 07:51:00,47.7,7.4,24.66,East,90,1.3,3.8,19,0.00,,,0.00,WUHU216WMR200,2013-03-01 15:51:00,
2013-03-01 07:56:00,48.7,8.2,24.66,East,90,0.0,3.4,19,0.00,,,0.00,WUHU216WMR200,2013-03-01 15:56:00,
2013-03-01 08:01:00,50.0,9.3,24.66,West,270,1.6,4.0,19,0.00,,,0.00,WUHU216WMR200,2013-03-01 16:01:00,
2013-03-01 08:06:00,51.3,10.4,24.66,WSW,247,0.0,5.6,19,0.00,,,0.00,WUHU216WMR200,2013-03-01 16:06:00,
2013-03-01 08:11:00,52.7,10.3,24.66,West,270,0.0,5.6,18,0.00,,,0.00,WUHU216WMR200,2013-03-01 16:11:00,
2013-03-01 08:16:00,53.4,10.9,24.66,West,270,2.7,4.0,18,0.00,,,0.00,WUHU216WMR200,2013-03-01 16:16:00,
2013-03-01 08:21:00,55.0,12.2,24.66,West,270,1.1,4.0,18,0.00,,,0.00,WUHU216WMR200,2013-03-01 16:21:00,
2013-03-01 08:26:00,57.0,12.5,24.66,SSE,157,0.0,2.9,17,0.00,,,0.00,WUHU216WMR200,2013-03-01 16:26:00,
2013-03-01 08:31:00,59.2,14.3,24.66,East,90,2.5,2.7,17,0.00,,,0.00,WUHU216WMR200,2013-03-01 16:31:00,
2013-03-01 08:36:00,60.8,14.2,24.66,ESE,112,1.1,2.7,16,0.00,,,0.00,WUHU216WMR200,2013-03-01 16:36:00,
2013-03-01 08:41:00,61.2,14.6,24.66,ESE,112,0.0,3.4,16,0.00,,,0.00,WUHU216WMR200,2013-03-01 16:41:00,
2013-03-01 08:46:00,62.8,15.9,24.66,SSE,157,0.0,3.4,16,0.00,,,0.00,WUHU216WMR200,2013-03-01 16:46:00,
2013-03-01 08:51:00,63.5,16.4,24.66,SE,135,0.0,2.5,16,0.00,,,0.00,WUHU216WMR200,2013-03-01 16:51:00,
2013-03-01 08:56:00,65.7,16.7,24.66,ESE,112,0.0,2.0,15,0.00,,,0.00,WUHU216WMR200,2013-03-01 16:56:00,
2013-03-01 09:01:00,67.1,17.8,24.66,East,90,0.0,2.2,15,0.00,,,0.00,WUHU216WMR200,2013-03-01 17:01:00,
2013-03-01 09:06:00,68.5,18.9,24.66,West,270,0.0,2.2,15,0.00,,,0.00,WUHU216WMR200,2013-03-01 17:06:00,
2013-03-01 09:11:00,69.8,18.3,24.66,ESE,112,1.6,2.2,14,0.00,,,0.00,WUHU216WMR200,2013-03-01 17:11:00,
2013-03-01 09:16:00,71.2,19.4,24.66,SSE,157,2.2,2.2,14,0.00,,,0.00,WUHU216WMR200,2013-03-01 17:16:00,
2013-03-01 09:21:00,71.8,19.9,24.66,East,90,0.0,2.5,14,0.00,,,0.00,WUHU216WMR200,2013-03-01 17:21:00,
2013-03-01 09:26:00,72.7,20.6,24.66,East,90,1.3,2.5,14,0.00,,,0.00,WUHU216WMR200,2013-03-01 17:26:00,
2013-03-01 09:31:00,72.5,20.5,24.66,SE,135,1.3,3.6,14,0.00,,,0.00,WUHU216WMR200,2013-03-01 17:31:00,
2013-03-01 09:36:00,72.9,20.8,24.63,NE,45,3.6,3.6,14,0.00,,,0.00,WUHU216WMR200,2013-03-01 17:36:00,
2013-03-01 09:41:00,73.8,19.7,24.63,East,90,0.0,3.6,13,0.00,,,0.00,WUHU216WMR200,2013-03-01 17:41:00,
2013-03-01 09:46:00,74.5,20.3,24.63,East,90,0.9,3.6,13,0.00,,,0.00,WUHU216WMR200,2013-03-01 17:46:00,
2013-03-01 09:51:00,74.8,20.5,24.63,SE,135,1.6,2.9,13,0.00,,,0.00,WUHU216WMR200,2013-03-01 17:51:00,
2013-03-01 09:56:00,75.9,21.4,24.63,SE,135,0.0,3.1,13,0.00,,,0.00,WUHU216WMR200,2013-03-01 17:56:00,
2013-03-01 10:01:00,75.7,21.2,24.63,North,0,1.6,3.1,13,0.00,,,0.00,WUHU216WMR200,2013-03-01 18:01:00,
2013-03-01 10:06:00,77.5,22.6,24.63,East,90,0.9,2.2,13,0.00,,,0.00,WUHU216WMR200,2013-03-01 18:06:00,
2013-03-01 10:11:00,78.4,23.3,24.63,SSE,157,0.9,3.4,13,0.00,,,0.00,WUHU216WMR200,2013-03-01 18:11:00,
2013-03-01 10:16:00,78.6,23.5,24.63,SE,135,1.3,3.4,13,0.00,,,0.00,WUHU216WMR200,2013-03-01 18:16:00,
2013-03-01 10:21:00,79.3,22.1,24.63,SSW,202,0.0,3.4,12,0.00,,,0.00,WUHU216WMR200,2013-03-01 18:21:00,
2013-03-01 10:26:00,78.8,21.7,24.63,NE,45,2.5,3.8,12,0.00,,,0.00,WUHU216WMR200,2013-03-01 18:26:00,
2013-03-01 10:31:00,80.8,23.3,24.63,ESE,112,1.6,3.8,12,0.00,,,0.00,WUHU216WMR200,2013-03-01 18:31:00,
2013-03-01 10:36:00,81.3,23.6,24.63,West,270,0.9,2.9,12,0.00,,,0.00,WUHU216WMR200,2013-03-01 18:36:00,
2013-03-01 10:41:00,81.5,23.8,24.63,East,90,1.3,3.1,12,0.00,,,0.00,WUHU216WMR200,2013-03-01 18:41:00,
2013-03-01 10:46:00,82.0,24.2,24.63,SW,225,0.0,3.1,12,0.00,,,0.00,WUHU216WMR200,2013-03-01 18:46:00,
2013-03-01 10:51:00,81.9,24.1,24.63,East,90,0.0,2.9,12,0.00,,,0.00,WUHU216WMR200,2013-03-01 18:51:00,
2013-03-01 10:56:00,81.7,24.0,24.63,East,90,1.3,3.1,12,0.00,,,0.00,WUHU216WMR200,2013-03-01 18:56:00,
2013-03-01 11:01:00,82.6,22.5,24.63,ESE,112,2.5,3.1,11,0.00,,,0.00,WUHU216WMR200,2013-03-01 19:01:00,
2013-03-01 11:06:00,83.8,23.4,24.60,ENE,67,2.7,2.9,11,0.00,,,0.00,WUHU216WMR200,2013-03-01 19:06:00,
2013-03-01 11:11:00,84.2,23.7,24.60,SSW,202,1.3,2.7,11,0.00,,,0.00,WUHU216WMR200,2013-03-01 19:11:00,
2013-03-01 11:16:00,84.4,23.9,24.60,West,270,2.7,3.1,11,0.00,,,0.00,WUHU216WMR200,2013-03-01 19:16:00,
2013-03-01 11:21:00,82.2,24.3,24.60,West,270,1.3,3.1,12,0.00,,,0.00,WUHU216WMR200,2013-03-01 19:21:00,
2013-03-01 11:26:00,82.8,22.7,24.60,NE,45,0.0,2.9,11,0.00,,,0.00,WUHU216WMR200,2013-03-01 19:26:00,
2013-03-01 11:31:00,85.1,24.4,24.60,East,90,0.0,2.9,11,0.00,,,0.00,WUHU216WMR200,2013-03-01 19:31:00,
2013-03-01 11:36:00,85.3,24.6,24.60,ESE,112,2.0,3.1,11,0.00,,,0.00,WUHU216WMR200,2013-03-01 19:36:00,
2013-03-01 11:41:00,85.5,24.7,24.60,SSE,157,3.8,3.8,11,0.00,,,0.00,WUHU216WMR200,2013-03-01 19:41:00,
2013-03-01 11:46:00,85.8,25.0,24.60,East,90,2.2,3.8,11,0.00,,,0.00,WUHU216WMR200,2013-03-01 19:46:00,
2013-03-01 11:51:00,87.6,26.3,24.60,West,270,0.0,3.8,11,0.00,,,0.00,WUHU216WMR200,2013-03-01 19:51:00,
2013-03-01 11:56:00,88.0,24.3,24.60,West,270,2.2,3.6,10,0.00,,,0.00,WUHU216WMR200,2013-03-01 19:56:00,
2013-03-01 12:01:00,88.3,24.5,24.60,SW,225,0.0,4.0,10,0.00,,,0.00,WUHU216WMR200,2013-03-01 20:01:00,
2013-03-01 12:06:00,86.5,25.5,24.57,North,0,0.0,4.0,11,0.00,,,0.00,WUHU216WMR200,2013-03-01 20:06:00,
2013-03-01 12:11:00,86.4,25.4,24.57,West,270,0.0,3.1,11,0.00,,,0.00,WUHU216WMR200,2013-03-01 20:11:00,
2013-03-01 12:16:00,84.6,24.0,24.57,West,270,1.1,3.1,11,0.00,,,0.00,WUHU216WMR200,2013-03-01 20:16:00,
2013-03-01 12:21:00,85.1,24.4,24.54,West,270,2.7,3.1,11,0.00,,,0.00,WUHU216WMR200,2013-03-01 20:21:00,
2013-03-01 12:26:00,85.5,24.7,24.54,ESE,112,2.2,3.6,11,0.00,,,0.00,WUHU216WMR200,2013-03-01 20:26:00,
2013-03-01 12:31:00,84.9,24.3,24.54,SW,225,0.0,3.8,11,0.00,,,0.00,WUHU216WMR200,2013-03-01 20:31:00,
2013-03-01 12:36:00,83.5,23.2,24.54,West,270,2.7,3.8,11,0.00,,,0.00,WUHU216WMR200,2013-03-01 20:36:00,
2013-03-01 12:41:00,82.8,22.7,24.54,ESE,112,2.2,4.7,11,0.00,,,0.00,WUHU216WMR200,2013-03-01 20:41:00,
2013-03-01 12:46:00,85.1,24.4,24.54,SW,225,0.9,4.7,11,0.00,,,0.00,WUHU216WMR200,2013-03-01 20:46:00,
2013-03-01 12:51:00,84.9,24.3,24.51,WNW,292,2.5,4.7,11,0.00,,,0.00,WUHU216WMR200,2013-03-01 20:51:00,
2013-03-01 12:56:00,82.0,24.2,24.51,West,270,2.7,4.0,12,0.00,,,0.00,WUHU216WMR200,2013-03-01 20:56:00,
2013-03-01 13:01:00,82.4,22.4,24.51,WSW,247,1.1,4.3,11,0.00,,,0.00,WUHU216WMR200,2013-03-01 21:01:00,
2013-03-01 13:06:00,82.8,22.7,24.51,WNW,292,2.2,4.3,11,0.00,,,0.00,WUHU216WMR200,2013-03-01 21:06:00,
2013-03-01 13:11:00,83.5,23.2,24.51,South,180,0.9,3.6,11,0.00,,,0.00,WUHU216WMR200,2013-03-01 21:11:00,
2013-03-01 13:16:00,82.4,22.4,24.51,WNW,292,3.4,3.4,11,0.00,,,0.00,WUHU216WMR200,2013-03-01 21:16:00,
2013-03-01 13:21:00,82.8,22.7,24.51,South,180,0.0,4.9,11,0.00,,,0.00,WUHU216WMR200,2013-03-01 21:21:00,
2013-03-01 13:26:00,83.1,22.9,24.51,SSW,202,2.2,4.9,11,0.00,,,0.00,WUHU216WMR200,2013-03-01 21:26:00,
2013-03-01 13:31:00,83.1,22.9,24.51,West,270,2.0,3.6,11,0.00,,,0.00,WUHU216WMR200,2013-03-01 21:31:00,
2013-03-01 13:36:00,82.6,22.5,24.51,West,270,2.2,4.0,11,0.00,,,0.00,WUHU216WMR200,2013-03-01 21:36:00,
2013-03-01 13:41:00,82.9,22.7,24.51,SE,135,0.0,4.0,11,0.00,,,0.00,WUHU216WMR200,2013-03-01 21:41:00,
2013-03-01 13:46:00,84.4,23.9,24.51,SW,225,2.2,3.4,11,0.00,,,0.00,WUHU216WMR200,2013-03-01 21:46:00,
2013-03-01 13:51:00,84.4,23.9,24.51,East,90,3.1,3.1,11,0.00,,,0.00,WUHU216WMR200,2013-03-01 21:51:00,
2013-03-01 13:56:00,84.4,23.9,24.51,West,270,0.9,3.1,11,0.00,,,0.00,WUHU216WMR200,2013-03-01 21:56:00,
2013-03-01 14:01:00,84.9,24.3,24.51,SW,225,2.0,4.0,11,0.00,,,0.00,WUHU216WMR200,2013-03-01 22:01:00,
2013-03-01 14:06:00,84.4,23.9,24.54,East,90,3.1,4.0,11,0.00,,,0.00,WUHU216WMR200,2013-03-01 22:06:00,
2013-03-01 14:11:00,84.9,24.3,24.54,SW,225,0.0,3.1,11,0.00,,,0.00,WUHU216WMR200,2013-03-01 22:11:00,
2013-03-01 14:16:00,84.9,24.3,24.54,SW,225,1.6,3.1,11,0.00,,,0.00,WUHU216WMR200,2013-03-01 22:16:00,
2013-03-01 14:21:00,84.4,23.9,24.54,West,270,0.9,3.1,11,0.00,,,0.00,WUHU216WMR200,2013-03-01 22:21:00,
2013-03-01 14:26:00,85.8,25.0,24.54,West,270,0.0,3.1,11,0.00,,,0.00,WUHU216WMR200,2013-03-01 22:26:00,
2013-03-01 14:31:00,86.9,25.8,24.54,SSE,157,1.1,2.9,11,0.00,,,0.00,WUHU216WMR200,2013-03-01 22:31:00,
2013-03-01 14:36:00,87.4,26.2,24.54,WSW,247,0.0,2.9,11,0.00,,,0.00,WUHU216WMR200,2013-03-01 22:36:00,
2013-03-01 14:41:00,84.2,23.7,24.54,WNW,292,1.1,2.9,11,0.00,,,0.00,WUHU216WMR200,2013-03-01 22:41:00,
2013-03-01 14:46:00,82.6,22.5,24.54,SE,135,0.0,3.1,11,0.00,,,0.00,WUHU216WMR200,2013-03-01 22:46:00,
2013-03-01 14:51:00,84.6,24.0,24.54,West,270,1.1,3.1,11,0.00,,,0.00,WUHU216WMR200,2013-03-01 22:51:00,
2013-03-01 14:56:00,82.6,22.5,24.54,West,270,0.0,2.9,11,0.00,,,0.00,WUHU216WMR200,2013-03-01 22:56:00,
2013-03-01 15:01:00,81.9,24.1,24.54,East,90,0.0,3.6,12,0.00,,,0.00,WUHU216WMR200,2013-03-01 23:01:00,
2013-03-01 15:06:00,84.2,23.7,24.54,West,270,1.1,3.6,11,0.00,,,0.00,WUHU216WMR200,2013-03-01 23:06:00,
2013-03-01 15:11:00,80.8,23.3,24.54,SSW,202,2.5,3.8,12,0.00,,,0.00,WUHU216WMR200,2013-03-01 23:11:00,
2013-03-01 15:16:00,80.4,22.9,24.54,SSW,202,0.0,3.8,12,0.00,,,0.00,WUHU216WMR200,2013-03-01 23:16:00,
2013-03-01 15:21:00,80.6,23.1,24.54,West,270,2.9,2.9,12,0.00,,,0.00,WUHU216WMR200,2013-03-01 23:21:00,
2013-03-01 15:26:00,80.8,23.3,24.54,SW,225,0.9,3.1,12,0.00,,,0.00,WUHU216WMR200,2013-03-01 23:26:00,
2013-03-01 15:31:00,79.3,22.1,24.54,ENE,67,0.0,3.6,12,0.00,,,0.00,WUHU216WMR200,2013-03-01 23:31:00,
2013-03-01 15:36:00,80.6,23.1,24.54,West,270,0.0,3.6,12,0.00,,,0.00,WUHU216WMR200,2013-03-01 23:36:00,
2013-03-01 15:41:00,78.8,21.7,24.54,SSW,202,1.1,2.7,12,0.00,,,0.00,WUHU216WMR200,2013-03-01 23:41:00,
2013-03-01 15:46:00,79.9,22.6,24.54,SE,135,0.9,2.7,12,0.00,,,0.00,WUHU216WMR200,2013-03-01 23:46:00,
2013-03-01 15:51:00,80.4,22.9,24.54,SW,225,0.0,2.5,12,0.00,,,0.00,WUHU216WMR200,2013-03-01 23:51:00,
2013-03-01 15:56:00,78.4,23.3,24.54,West,270,1.6,2.2,13,0.00,,,0.00,WUHU216WMR200,2013-03-01 23:56:00,
2013-03-01 16:01:00,77.4,22.6,24.54,West,270,0.0,3.1,13,0.00,,,0.00,WUHU216WMR200,2013-03-02 00:01:00,
2013-03-01 16:06:00,79.2,22.0,24.54,West,270,0.9,3.1,12,0.00,,,0.00,WUHU216WMR200,2013-03-02 00:06:00,
2013-03-01 16:11:00,77.0,22.2,24.54,West,270,0.0,3.6,13,0.00,,,0.00,WUHU216WMR200,2013-03-02 00:11:00,
2013-03-01 16:16:00,78.1,23.1,24.54,WSW,247,0.0,3.6,13,0.00,,,0.00,WUHU216WMR200,2013-03-02 00:16:00,
2013-03-01 16:21:00,76.3,21.7,24.54,WSW,247,0.0,2.9,13,0.00,,,0.00,WUHU216WMR200,2013-03-02 00:21:00,
2013-03-01 16:26:00,75.9,21.4,24.54,WSW,247,0.0,2.9,13,0.00,,,0.00,WUHU216WMR200,2013-03-02 00:26:00,
2013-03-01 16:31:00,75.6,21.1,24.54,SW,225,0.0,2.7,13,0.00,,,0.00,WUHU216WMR200,2013-03-02 00:31:00,
2013-03-01 16:36:00,75.0,20.7,24.54,West,270,1.3,2.5,13,0.00,,,0.00,WUHU216WMR200,2013-03-02 00:36:00,
2013-03-01 16:41:00,76.8,22.1,24.54,WSW,247,0.0,2.5,13,0.00,,,0.00,WUHU216WMR200,2013-03-02 00:41:00,
2013-03-01 16:46:00,75.2,20.8,24.54,SW,225,0.0,1.3,13,0.00,,,0.00,WUHU216WMR200,2013-03-02 00:46:00,
2013-03-01 16:51:00,75.0,20.7,24.54,SW,225,0.0,1.6,13,0.00,,,0.00,WUHU216WMR200,2013-03-02 00:51:00,
2013-03-01 16:56:00,72.9,20.8,24.54,WSW,247,0.0,2.7,14,0.00,,,0.00,WUHU216WMR200,2013-03-02 00:56:00,
2013-03-01 17:01:00,72.0,20.1,24.54,West,270,0.0,2.7,14,0.00,,,0.00,WUHU216WMR200,2013-03-02 01:01:00,
2013-03-01 17:06:00,71.1,19.4,24.54,West,270,0.0,1.1,14,0.00,,,0.00,WUHU216WMR200,2013-03-02 01:06:00,
2013-03-01 17:11:00,68.5,18.9,24.54,WSW,247,0.0,1.6,15,0.00,,,0.00,WUHU216WMR200,2013-03-02 01:11:00,
2013-03-01 17:16:00,65.8,16.8,24.54,WSW,247,0.0,1.6,15,0.00,,,0.00,WUHU216WMR200,2013-03-02 01:16:00,
2013-03-01 17:21:00,62.6,15.7,24.54,West,270,0.0,2.2,16,0.00,,,0.00,WUHU216WMR200,2013-03-02 01:21:00,
2013-03-01 17:26:00,61.0,14.4,24.54,WSW,247,0.0,2.2,16,0.00,,,0.00,WUHU216WMR200,2013-03-02 01:26:00,
2013-03-01 17:31:00,59.9,14.9,24.54,SE,135,0.0,1.6,17,0.00,,,0.00,WUHU216WMR200,2013-03-02 01:31:00,
2013-03-01 17:36:00,58.8,14.0,24.54,ENE,67,2.0,2.9,17,0.00,,,0.00,WUHU216WMR200,2013-03-02 01:36:00,
2013-03-01 17:41:00,57.7,13.1,24.54,SSW,202,0.0,2.9,17,0.00,,,0.00,WUHU216WMR200,2013-03-02 01:41:00,
2013-03-01 17:46:00,56.8,12.4,24.54,West,270,1.1,3.1,17,0.00,,,0.00,WUHU216WMR200,2013-03-02 01:46:00,
2013-03-01 17:51:00,55.9,11.6,24.51,WNW,292,0.0,3.6,17,0.00,,,0.00,WUHU216WMR200,2013-03-02 01:51:00,
2013-03-01 17:56:00,55.4,11.2,24.51,West,270,0.9,3.6,17,0.00,,,0.00,WUHU216WMR200,2013-03-02 01:56:00,
2013-03-01 18:01:00,55.2,12.4,24.51,West,270,2.5,3.1,18,0.00,,,0.00,WUHU216WMR200,2013-03-02 02:01:00,
2013-03-01 18:06:00,54.9,12.1,24.54,ENE,67,1.3,3.1,18,0.00,,,0.00,WUHU216WMR200,2013-03-02 02:06:00,
2013-03-01 18:11:00,54.5,11.8,24.54,NW,315,0.9,3.1,18,0.00,,,0.00,WUHU216WMR200,2013-03-02 02:11:00,
2013-03-01 18:16:00,54.0,11.4,24.54,SSW,202,1.1,2.2,18,0.00,,,0.00,WUHU216WMR200,2013-03-02 02:16:00,
2013-03-01 18:21:00,53.6,11.0,24.54,NW,315,2.7,3.1,18,0.00,,,0.00,WUHU216WMR200,2013-03-02 02:21:00,
2013-03-01 18:26:00,53.4,10.9,24.54,West,270,0.0,3.1,18,0.00,,,0.00,WUHU216WMR200,2013-03-02 02:26:00,
2013-03-01 18:31:00,53.4,10.9,24.54,West,270,0.0,3.1,18,0.00,,,0.00,WUHU216WMR200,2013-03-02 02:31:00,
2013-03-01 18:36:00,53.1,10.6,24.57,West,270,0.0,1.3,18,0.00,,,0.00,WUHU216WMR200,2013-03-02 02:36:00,
2013-03-01 18:41:00,52.3,10.0,24.57,WSW,247,0.0,1.1,18,0.00,,,0.00,WUHU216WMR200,2013-03-02 02:41:00,
2013-03-01 18:46:00,52.2,9.9,24.57,ESE,112,1.1,1.6,18,0.00,,,0.00,WUHU216WMR200,2013-03-02 02:46:00,
2013-03-01 18:51:00,52.0,9.7,24.57,East,90,2.5,2.9,18,0.00,,,0.00,WUHU216WMR200,2013-03-02 02:51:00,
2013-03-01 18:56:00,52.2,9.9,24.57,SSE,157,0.0,2.9,18,0.00,,,0.00,WUHU216WMR200,2013-03-02 02:56:00,
2013-03-01 19:01:00,52.0,9.7,24.57,East,90,1.1,2.7,18,0.00,,,0.00,WUHU216WMR200,2013-03-02 03:01:00,
2013-03-01 19:06:00,51.8,9.6,24.57,ESE,112,0.0,1.3,18,0.00,,,0.00,WUHU216WMR200,2013-03-02 03:06:00,
2013-03-01 19:11:00,51.6,10.6,24.57,East,90,0.0,1.3,19,0.00,,,0.00,WUHU216WMR200,2013-03-02 03:11:00,
2013-03-01 19:16:00,51.8,9.6,24.57,East,90,0.0,0.0,18,0.00,,,0.00,WUHU216WMR200,2013-03-02 03:16:00,
2013-03-01 19:21:00,51.4,10.4,24.60,ESE,112,0.0,0.0,19,0.00,,,0.00,WUHU216WMR200,2013-03-02 03:21:00,
2013-03-01 19:26:00,51.1,10.2,24.60,SSW,202,0.0,0.0,19,0.00,,,0.00,WUHU216WMR200,2013-03-02 03:26:00,
2013-03-01 19:31:00,50.7,9.9,24.60,ESE,112,0.0,0.0,19,0.00,,,0.00,WUHU216WMR200,2013-03-02 03:31:00,
2013-03-01 19:36:00,50.5,9.7,24.57,ENE,67,0.0,0.0,19,0.00,,,0.00,WUHU216WMR200,2013-03-02 03:36:00,
2013-03-01 19:41:00,50.4,9.6,24.57,NW,315,0.0,0.0,19,0.00,,,0.00,WUHU216WMR200,2013-03-02 03:41:00,
2013-03-01 19:46:00,50.2,9.4,24.57,East,90,0.0,0.0,19,0.00,,,0.00,WUHU216WMR200,2013-03-02 03:46:00,
2013-03-01 19:51:00,50.4,9.6,24.60,WSW,247,0.0,0.0,19,0.00,,,0.00,WUHU216WMR200,2013-03-02 03:51:00,
2013-03-01 19:56:00,50.4,9.6,24.60,West,270,0.0,0.0,19,0.00,,,0.00,WUHU216WMR200,2013-03-02 03:56:00,
2013-03-01 20:01:00,50.4,9.6,24.60,ESE,112,1.1,2.2,19,0.00,,,0.00,WUHU216WMR200,2013-03-02 04:01:00,
2013-03-01 20:06:00,50.2,9.4,24.60,WNW,292,0.0,2.2,19,0.00,,,0.00,WUHU216WMR200,2013-03-02 04:06:00,
2013-03-01 20:11:00,50.0,9.3,24.60,ESE,112,0.0,1.6,19,0.00,,,0.00,WUHU216WMR200,2013-03-02 04:11:00,
2013-03-01 20:16:00,50.2,9.4,24.60,ESE,112,0.0,1.1,19,0.00,,,0.00,WUHU216WMR200,2013-03-02 04:16:00,
2013-03-01 20:21:00,50.0,9.3,24.60,ESE,112,0.0,1.1,19,0.00,,,0.00,WUHU216WMR200,2013-03-02 04:21:00,
2013-03-01 20:26:00,50.2,9.4,24.60,ESE,112,1.3,2.5,19,0.00,,,0.00,WUHU216WMR200,2013-03-02 04:26:00,
2013-03-01 20:31:00,49.8,9.1,24.60,East,90,0.0,2.5,19,0.00,,,0.00,WUHU216WMR200,2013-03-02 04:31:00,
2013-03-01 20:36:00,50.2,9.4,24.60,East,90,0.0,1.3,19,0.00,,,0.00,WUHU216WMR200,2013-03-02 04:36:00,
2013-03-01 20:41:00,50.5,9.7,24.60,ESE,112,2.0,3.6,19,0.00,,,0.00,WUHU216WMR200,2013-03-02 04:41:00,
2013-03-01 20:46:00,50.5,9.7,24.60,East,90,1.6,3.6,19,0.00,,,0.00,WUHU216WMR200,2013-03-02 04:46:00,
2013-03-01 20:51:00,50.7,9.9,24.60,East,90,0.0,3.1,19,0.00,,,0.00,WUHU216WMR200,2013-03-02 04:51:00,
2013-03-01 20:56:00,50.7,9.9,24.60,ESE,112,1.3,2.9,19,0.00,,,0.00,WUHU216WMR200,2013-03-02 04:56:00,
2013-03-01 21:00:00,50.9,10.0,24.60,ESE,112,2.2,2.5,19,0.00,,,0.00,WUHU216WMR200,2013-03-02 05:00:00,
2013-03-01 21:05:00,50.2,9.4,24.63,South,180,0.9,2.5,19,0.00,,,0.00,WUHU216WMR200,2013-03-02 05:05:00,
2013-03-01 21:10:00,49.8,9.1,24.63,ESE,112,1.6,2.7,19,0.00,,,0.00,WUHU216WMR200,2013-03-02 05:10:00,
2013-03-01 21:15:00,49.6,8.9,24.63,West,270,0.0,2.7,19,0.00,,,0.00,WUHU216WMR200,2013-03-02 05:15:00,
2013-03-01 21:20:00,49.6,8.9,24.60,West,270,0.0,1.6,19,0.00,,,0.00,WUHU216WMR200,2013-03-02 05:20:00,
2013-03-01 21:25:00,49.5,8.9,24.60,NW,315,0.0,0.9,19,0.00,,,0.00,WUHU216WMR200,2013-03-02 05:25:00,
2013-03-01 21:30:00,49.5,8.9,24.60,West,270,1.1,1.1,19,0.00,,,0.00,WUHU216WMR200,2013-03-02 05:30:00,
2013-03-01 21:35:00,49.5,8.9,24.57,West,270,0.0,1.1,19,0.00,,,0.00,WUHU216WMR200,2013-03-02 05:35:00,
2013-03-01 21:40:00,49.6,8.9,24.57,West,270,0.0,1.1,19,0.00,,,0.00,WUHU216WMR200,2013-03-02 05:40:00,
2013-03-01 21:45:00,49.5,8.9,24.57,WSW,247,0.0,1.6,19,0.00,,,0.00,WUHU216WMR200,2013-03-02 05:45:00,
2013-03-01 21:50:00,49.5,8.9,24.57,WSW,247,0.0,1.6,19,0.00,,,0.00,WUHU216WMR200,2013-03-02 05:50:00,
2013-03-01 21:55:00,49.3,8.7,24.57,West,270,1.1,1.1,19,0.00,,,0.00,WUHU216WMR200,2013-03-02 05:55:00,
2013-03-01 22:00:00,49.3,8.7,24.57,SW,225,0.0,1.1,19,0.00,,,0.00,WUHU216WMR200,2013-03-02 06:00:00,
2013-03-01 22:05:00,49.5,8.9,24.60,WNW,292,0.9,2.0,19,0.00,,,0.00,WUHU216WMR200,2013-03-02 06:05:00,
2013-03-01 22:10:00,49.8,9.1,24.60,West,270,0.9,2.0,19,0.00,,,0.00,WUHU216WMR200,2013-03-02 06:10:00,
2013-03-01 22:15:00,49.6,8.9,24.60,West,270,1.1,2.5,19,0.00,,,0.00,WUHU216WMR200,2013-03-02 06:15:00,
2013-03-01 22:20:00,49.8,9.1,24.57,West,270,0.0,2.5,19,0.00,,,0.00,WUHU216WMR200,2013-03-02 06:20:00,
2013-03-01 22:25:00,49.6,8.9,24.57,WSW,247,0.0,2.5,19,0.00,,,0.00,WUHU216WMR200,2013-03-02 06:25:00,
2013-03-01 22:30:00,49.6,8.9,24.57,WNW,292,0.0,2.9,19,0.00,,,0.00,WUHU216WMR200,2013-03-02 06:30:00,
2013-03-01 22:35:00,49.5,8.9,24.60,West,270,0.0,2.9,19,0.00,,,0.00,WUHU216WMR200,2013-03-02 06:35:00,
2013-03-01 22:40:00,49.5,8.9,24.60,WNW,292,1.1,2.5,19,0.00,,,0.00,WUHU216WMR200,2013-03-02 06:40:00,
2013-03-01 22:45:00,49.6,8.9,24.60,WNW,292,0.0,1.6,19,0.00,,,0.00,WUHU216WMR200,2013-03-02 06:45:00,
2013-03-01 22:50:00,49.3,8.7,24.57,West,270,0.0,1.3,19,0.00,,,0.00,WUHU216WMR200,2013-03-02 06:50:00,
2013-03-01 22:55:00,49.6,8.9,24.57,West,270,0.0,1.3,19,0.00,,,0.00,WUHU216WMR200,2013-03-02 06:55:00,
2013-03-01 23:00:00,49.8,9.1,24.57,West,270,0.0,1.3,19,0.00,,,0.00,WUHU216WMR200,2013-03-02 07:00:00,
2013-03-01 23:05:00,50.0,9.3,24.60,West,270,0.0,0.9,19,0.00,,,0.00,WUHU216WMR200,2013-03-02 07:05:00,
2013-03-01 23:10:00,49.8,9.1,24.60,West,270,0.0,0.9,19,0.00,,,0.00,WUHU216WMR200,2013-03-02 07:10:00,
2013-03-01 23:15:00,49.5,8.9,24.60,West,270,0.0,0.0,19,0.00,,,0.00,WUHU216WMR200,2013-03-02 07:15:00,
2013-03-01 23:20:00,49.3,8.7,24.60,West,270,0.0,0.0,19,0.00,,,0.00,WUHU216WMR200,2013-03-02 07:20:00,
2013-03-01 23:25:00,48.9,8.4,24.60,West,270,0.0,0.0,19,0.00,,,0.00,WUHU216WMR200,2013-03-02 07:25:00,
2013-03-01 23:30:00,48.7,8.2,24.60,East,90,0.0,0.0,19,0.00,,,0.00,WUHU216WMR200,2013-03-02 07:30:00,
2013-03-01 23:35:00,48.7,8.2,24.57,SW,225,0.0,0.0,19,0.00,,,0.00,WUHU216WMR200,2013-03-02 07:35:00,
2013-03-01 23:40:00,48.6,8.1,24.57,SSW,202,0.0,0.0,19,0.00,,,0.00,WUHU216WMR200,2013-03-02 07:40:00,
2013-03-01 23:45:00,48.6,8.1,24.57,South,180,0.0,0.0,19,0.00,,,0.00,WUHU216WMR200,2013-03-02 07:45:00,
2013-03-01 23:50:00,48.4,8.0,24.60,SSW,202,0.0,0.0,19,0.00,,,0.00,WUHU216WMR200,2013-03-02 07:50:00,
2013-03-01 23:55:00,48.2,7.8,24.60,SSW,202,0.0,0.0,19,0.00,,,0.00,WUHU216WMR200,2013-03-02 07:55:00,